If you wish to contribute or participate in the discussions about articles you are invited to join SKYbrary as a registered user

 Actions

Dasht-e Naz Airport

From SKYbrary Wiki

OINZ
Airport
ICAO: OINZ – IATA: SRY
Summary
Name Dasht-e Naz Airport
Region Middle East
Territory Iran IR.gif
Location Shah Abad, Mazandaran Province
Serving Sari
Elevation 10.668 m
35 ft10.668 m
Coordinates 36° 37' 36.66" N, 53° 12' 13.64" E
Runways
Designator Length Width Surface ROPS
16/34 2648 m8,687.664 ft
45 m147.638 ft
ASP /


METAR
Observation OINZ 250300Z 00000KT CAVOK 07/05 Q1027
Station SARY DASHTE NAZ
Date/Time 25 April 2019 03:00:00
Wind direction
Wind speed 00 kts
Lowest cloud amount clouds and visibility OK
Temperature 7°C
Dew point 5°C
Humidity 87%
QNH 1027 hPa
Weather condition n/a

Airport located 23km12.419 nm
23,000 m
75,459.318 ft
northeast of Sari, Iran.

Climatology

Humid sub-tropical climate (Köppen climate classification Cfa).

Maps

Terrain

Loading map...

Airport Layout

Loading map...


Accidents & Serious Incidents at or in vicinity of OINZ

None on SKYbrary